Time;durP1;ratioP1;P1;durP2;ratioP2;P2;SDS_P1;SDS_P2;PMS_P1;PMS_P2;Temp;Humidity;BMP_temperature;BMP_pressure;BME280_temperature;BME280_humidity;BME280_pressure;Samples;Min_cycle;Max_cycle;Signal;HPM_P1;HPM_P2
2023/01/18 00:02:49;;;;;;;2.90;2.50;;;;;;;188.01;100.00;60274.75;6246686;28;20469;-44
2023/01/18 00:05:53;;;;;;;2.43;2.03;;;;;;;-144.22;100.00;60274.75;6249695;28;20244;-44
2023/01/18 00:08:55;;;;;;;2.70;2.50;;;;;;;-144.22;100.00;60274.75;6247271;28;20227;-44
2023/01/18 00:11:58;;;;;;;3.80;2.43;;;;;;;1.47;100.00;77937.34;6229800;28;20761;-44
2023/01/18 00:15:00;;;;;;;2.23;2.03;;;;;;;-144.22;100.00;60274.75;6246127;28;20464;-44
2023/01/18 00:18:02;;;;;;;2.50;2.30;;;;;;;-144.22;100.00;60274.75;6246183;28;20233;-45
2023/01/18 00:21:08;;;;;;;2.37;2.07;;;;;;;-144.22;100.00;60274.75;6245165;28;20226;-44
2023/01/18 00:24:13;;;;;;;2.63;2.20;;;;;;;188.01;100.00;60274.75;6244452;28;20245;-44
2023/01/18 00:27:16;;;;;;;3.47;1.77;;;;;;;-144.22;100.00;60274.75;6245543;28;20291;-44
2023/01/18 00:30:21;;;;;;;1.87;1.77;;;;;;;-144.22;100.00;60274.75;6243910;28;20422;-44
2023/01/18 00:33:23;;;;;;;1.70;1.60;;;;;;;-144.22;100.00;60274.75;6246574;28;20304;-45
2023/01/18 00:36:26;;;;;;;1.73;1.63;;;;;;;-144.22;100.00;60274.75;6243008;28;20341;-44
2023/01/18 00:39:28;;;;;;;1.43;1.33;;;;;;;188.01;100.00;60274.75;6244699;28;20309;-44
2023/01/18 00:45:51;;;;;;;1.57;1.47;;;;;;;-144.22;100.00;60274.75;6246233;28;20579;-44
2023/01/18 00:48:54;;;;;;;1.50;1.40;;;;;;;-144.22;100.00;60274.75;6243530;28;20584;-43
2023/01/18 00:51:56;;;;;;;1.30;1.20;;;;;;;-144.22;100.00;60274.75;6242980;28;20267;-44
2023/01/18 00:55:04;;;;;;;2.17;1.70;;;;;;;188.01;100.00;60274.75;6246023;28;20256;-44
2023/01/18 00:58:06;;;;;;;1.37;1.23;;;;;;;-144.22;100.00;60274.75;6242768;28;20240;-44
2023/01/18 01:01:09;;;;;;;1.60;1.40;;;;;;;-144.22;100.00;60274.75;6244338;28;20316;-44
2023/01/18 01:07:32;;;;;;;2.00;1.80;;;;;;;-144.22;100.00;60274.75;6239374;28;20455;-44
2023/01/18 01:10:34;;;;;;;1.17;1.07;;;;;;;188.01;100.00;60274.75;6246073;28;20330;-43
2023/01/18 01:27:01;;;;;;;2.50;2.30;;;;;;;188.01;100.00;60274.75;6239423;28;20247;-44
2023/01/18 01:30:03;;;;;;;1.97;1.87;;;;;;;-144.22;100.00;60274.75;6248285;28;20235;-44
2023/01/18 01:33:05;;;;;;;2.07;1.87;;;;;;;-144.22;100.00;60274.75;6245531;28;20587;-44
2023/01/18 01:36:14;;;;;;;2.53;2.13;;;;;;;-144.22;100.00;60274.75;6247526;28;20822;-44
2023/01/18 01:39:16;;;;;;;2.50;2.30;;;;;;;-144.22;100.00;60274.75;6237171;28;20224;-45
2023/01/18 01:42:20;;;;;;;2.70;2.47;;;;;;;-144.22;100.00;60274.75;6243103;28;20227;-44
2023/01/18 01:45:25;;;;;;;2.83;2.57;;;;;;;-144.22;100.00;60274.75;6242948;28;20342;-44
2023/01/18 01:48:28;;;;;;;2.43;2.20;;;;;;;-144.22;100.00;60274.75;6242080;28;20308;-44
2023/01/18 01:51:33;;;;;;;2.10;1.90;;;;;;;-144.22;100.00;60274.75;6243453;28;20241;-44
2023/01/18 01:54:41;;;;;;;2.50;2.30;;;;;;;-144.22;100.00;60274.75;6243443;28;20257;-44
2023/01/18 01:57:50;;;;;;;2.43;2.23;;;;;;;-144.22;100.00;60274.75;6225546;28;20285;-44
2023/01/18 02:00:53;;;;;;;2.93;2.60;;;;;;;-144.22;100.00;60274.75;6240747;28;20319;-44
2023/01/18 02:04:00;;;;;;;3.20;2.90;;;;;;;2.28;100.00;60274.75;6243405;28;20440;-44
2023/01/18 02:07:02;;;;;;;2.60;2.40;;;;;;;-144.22;100.00;60274.75;6243791;28;20245;-44
2023/01/18 02:10:05;;;;;;;2.80;2.43;;;;;;;-144.22;100.00;60274.75;6240107;28;20280;-44
2023/01/18 02:13:10;;;;;;;3.43;3.00;;;;;;;-144.22;100.00;60274.75;6238366;28;20753;-44
2023/01/18 02:16:26;;;;;;;3.97;2.60;;;;;;;-144.22;100.00;60274.75;6242959;28;20242;-44
2023/01/18 02:19:43;;;;;;;3.17;2.87;;;;;;;0.97;100.00;60274.75;6248479;28;20547;-43
2023/01/18 02:23:44;;;;;;;2.83;2.60;;;;;;;0.96;100.00;60274.75;6246029;28;20247;-44
2023/01/18 02:26:59;;;;;;;2.90;2.60;;;;;;;0.96;100.00;60274.75;6242784;28;20305;-44
2023/01/18 02:30:33;;;;;;;2.50;2.07;;;;;;;-144.22;100.00;60274.75;6238471;28;20662;-44
2023/01/18 02:33:54;;;;;;;3.70;2.50;;;;;;;0.98;100.00;60274.75;6238541;28;20494;-44
2023/01/18 02:37:09;;;;;;;3.17;2.27;;;;;;;0.93;100.00;60274.75;6238369;28;20239;-44
2023/01/18 02:40:17;;;;;;;2.50;2.30;;;;;;;0.96;100.00;60274.75;6245421;28;20247;-44
2023/01/18 02:46:43;;;;;;;2.43;2.23;;;;;;;0.94;100.00;60274.75;6241742;28;20579;-44
2023/01/18 02:49:45;;;;;;;2.97;2.50;;;;;;;-144.22;100.00;60274.75;6247999;28;20368;-44
2023/01/18 02:52:50;;;;;;;2.90;2.50;;;;;;;-144.22;100.00;60274.75;6241672;28;20628;-44
2023/01/18 02:56:01;;;;;;;2.93;2.67;;;;;;;0.87;100.00;60274.75;6227080;28;20377;-44
2023/01/18 02:59:09;;;;;;;2.50;2.30;;;;;;;0.81;100.00;60274.75;6243375;28;20281;-44
2023/01/18 03:02:15;;;;;;;3.50;2.97;;;;;;;0.77;100.00;60274.75;6240853;28;20308;-44
2023/01/18 03:05:19;;;;;;;3.03;2.73;;;;;;;0.74;100.00;60274.75;6245126;28;20746;-44
2023/01/18 03:08:27;;;;;;;2.90;2.70;;;;;;;0.73;100.00;60274.75;6243052;28;20332;-44
2023/01/18 03:11:39;;;;;;;2.93;2.40;;;;;;;0.72;100.00;60274.75;6244965;28;20327;-44
2023/01/18 03:14:56;;;;;;;3.20;2.87;;;;;;;-144.22;100.00;60274.75;6242150;28;20216;-44
2023/01/18 03:18:17;;;;;;;3.50;2.77;;;;;;;0.69;100.00;60274.75;6238760;28;20235;-44
2023/01/18 03:21:19;;;;;;;3.47;2.67;;;;;;;0.68;100.00;60274.75;6242531;28;20270;-44
2023/01/18 03:24:22;;;;;;;3.10;2.80;;;;;;;0.98;100.00;60274.75;6241354;28;20249;-44
2023/01/18 03:34:37;;;;;;;3.50;3.03;;;;;;;-144.22;100.00;60274.75;6240551;28;20231;-45
2023/01/18 03:37:44;;;;;;;3.70;2.77;;;;;;;-144.22;100.00;60274.75;6240579;28;20289;-45
2023/01/18 03:40:46;;;;;;;3.47;3.17;;;;;;;-144.22;100.00;60274.75;6245191;28;20224;-44
2023/01/18 03:43:53;;;;;;;2.70;2.50;;;;;;;-144.22;100.00;60274.75;6233509;28;20539;-44
2023/01/18 03:46:56;;;;;;;3.07;2.60;;;;;;;-144.22;100.00;60274.75;6242028;28;20238;-43
2023/01/18 03:49:58;;;;;;;3.67;3.10;;;;;;;-144.22;100.00;60274.75;6245922;28;20226;-44
2023/01/18 03:53:07;;;;;;;3.47;2.80;;;;;;;-144.22;100.00;60274.75;6246616;28;20238;-43
2023/01/18 03:56:19;;;;;;;3.77;2.60;;;;;;;-144.22;100.00;60274.75;6236217;28;20234;-44
2023/01/18 03:59:22;;;;;;;2.50;2.30;;;;;;;-144.22;100.00;60274.75;6249635;28;20807;-44
2023/01/18 04:02:26;;;;;;;2.90;2.60;;;;;;;-144.22;100.00;60274.75;6246016;28;20330;-44
2023/01/18 04:05:29;;;;;;;3.07;2.57;;;;;;;-144.22;100.00;60274.75;6246659;28;20234;-44
2023/01/18 04:08:31;;;;;;;2.90;2.50;;;;;;;-144.22;100.00;60274.75;6246810;28;20235;-44
2023/01/18 04:11:34;;;;;;;3.30;2.80;;;;;;;-144.22;100.00;60274.75;6248319;28;20263;-44
2023/01/18 04:14:36;;;;;;;2.83;2.33;;;;;;;-144.22;100.00;60274.75;6244909;28;20749;-44
2023/01/18 04:17:38;;;;;;;2.90;2.60;;;;;;;-144.22;100.00;60274.75;6243045;28;20329;-43
2023/01/18 04:20:40;;;;;;;2.50;2.30;;;;;;;-144.22;100.00;60274.75;6246740;28;20226;-44
2023/01/18 04:23:42;;;;;;;2.90;2.50;;;;;;;-144.22;100.00;60274.75;6243088;28;20223;-44
2023/01/18 04:26:45;;;;;;;2.60;2.30;;;;;;;-144.22;100.00;60274.75;6245109;28;20235;-43
2023/01/18 04:29:47;;;;;;;2.50;2.07;;;;;;;-144.22;100.00;60274.75;6246172;28;20246;-44
2023/01/18 04:32:49;;;;;;;2.30;2.10;;;;;;;-144.22;100.00;60274.75;6244682;28;20238;-44
2023/01/18 04:35:54;;;;;;;2.30;2.10;;;;;;;-144.22;100.00;60274.75;6242337;28;20483;-44
2023/01/18 04:38:56;;;;;;;3.43;1.90;;;;;;;-144.22;100.00;60274.75;6242290;28;20445;-44
2023/01/18 04:41:59;;;;;;;2.33;2.13;;;;;;;-144.22;100.00;60274.75;6247926;28;20324;-44
2023/01/18 04:45:01;;;;;;;2.23;2.03;;;;;;;-144.22;100.00;60274.75;6247324;28;20795;-43
2023/01/18 04:48:04;;;;;;;2.43;2.10;;;;;;;-144.22;100.00;60274.75;6244426;28;20763;-44
2023/01/18 04:51:11;;;;;;;3.10;2.07;;;;;;;-144.22;100.00;60274.75;6240666;28;20715;-44
2023/01/18 04:54:16;;;;;;;3.60;2.70;;;;;;;-144.22;100.00;60274.75;6244086;28;20724;-44
2023/01/18 04:57:19;;;;;;;5.43;2.97;;;;;;;-144.22;100.00;60274.75;6243941;28;20955;-44
2023/01/18 05:00:22;;;;;;;3.67;3.00;;;;;;;-144.22;100.00;60274.75;6246130;28;20507;-44
2023/01/18 05:03:24;;;;;;;4.27;3.40;;;;;;;-144.22;100.00;60274.75;6241069;28;20250;-45
2023/01/18 05:06:26;;;;;;;3.67;3.13;;;;;;;-144.22;100.00;60274.75;6244424;28;20808;-44
2023/01/18 05:09:28;;;;;;;3.73;3.17;;;;;;;-144.22;100.00;60274.75;6245192;28;20234;-44
2023/01/18 05:12:30;;;;;;;4.90;3.90;;;;;;;-144.22;100.00;60274.75;6245709;28;20481;-44
2023/01/18 05:15:33;;;;;;;6.63;4.73;;;;;;;-144.22;100.00;60274.75;6245612;28;20671;-45
2023/01/18 05:18:35;;;;;;;7.00;4.87;;;;;;;-144.22;100.00;60274.75;6223976;28;20262;-44
2023/01/18 05:21:38;;;;;;;6.37;5.07;;;;;;;-144.22;100.00;60274.75;6244490;28;20238;-45
2023/01/18 05:24:40;;;;;;;7.80;5.63;;;;;;;-144.22;100.00;60274.75;6243991;28;20242;-44
2023/01/18 05:27:42;;;;;;;6.33;4.93;;;;;;;-144.22;100.00;60274.75;6242785;28;20236;-46
2023/01/18 05:30:46;;;;;;;9.27;6.33;;;;;;;-144.22;100.00;60274.75;6241423;28;20243;-44
2023/01/18 05:33:49;;;;;;;8.97;6.67;;;;;;;-144.22;100.00;60274.75;6244381;28;20238;-44
2023/01/18 05:36:51;;;;;;;9.43;6.23;;;;;;;-144.22;100.00;60274.75;6241488;28;20249;-45
2023/01/18 05:39:53;;;;;;;10.10;7.00;;;;;;;-144.22;100.00;60274.75;6243427;28;20241;-45
2023/01/18 05:42:55;;;;;;;10.87;6.60;;;;;;;-144.22;100.00;60274.75;6243045;28;20234;-44
2023/01/18 05:45:58;;;;;;;8.23;6.20;;;;;;;-144.22;100.00;60274.75;6244122;28;20737;-45
2023/01/18 05:49:01;;;;;;;13.00;8.10;;;;;;;-144.22;100.00;60274.75;6243958;28;20566;-44
2023/01/18 05:52:03;;;;;;;7.83;5.63;;;;;;;0.98;100.00;60274.75;6246021;28;20274;-44
2023/01/18 05:55:06;;;;;;;9.97;7.37;;;;;;;-144.22;100.00;60274.75;6245851;28;20360;-44
2023/01/18 05:58:08;;;;;;;11.17;7.50;;;;;;;0.98;100.00;60274.75;6246771;28;20793;-44
2023/01/18 06:01:10;;;;;;;9.73;6.33;;;;;;;0.42;100.00;77871.63;6244226;28;20647;-44
2023/01/18 06:04:13;;;;;;;9.83;6.13;;;;;;;-144.22;100.00;60274.75;6249389;28;20242;-45
2023/01/18 06:07:15;;;;;;;9.30;6.63;;;;;;;-144.22;100.00;60274.75;6244027;28;20586;-44
2023/01/18 06:10:18;;;;;;;8.80;6.87;;;;;;;-144.22;100.00;60274.75;6245349;28;20324;-45
2023/01/18 06:13:22;;;;;;;10.70;7.27;;;;;;;-144.22;100.00;60274.75;6246431;28;20323;-43
2023/01/18 06:16:24;;;;;;;9.73;6.77;;;;;;;-144.22;100.00;60274.75;6246064;28;20234;-44
2023/01/18 06:19:27;;;;;;;19.03;8.37;;;;;;;-144.22;100.00;60274.75;6243122;28;20251;-44
2023/01/18 06:22:29;;;;;;;10.80;6.97;;;;;;;-144.22;100.00;60274.75;6246498;28;20234;-44
2023/01/18 06:25:31;;;;;;;14.60;6.93;;;;;;;-144.22;100.00;60274.75;6246586;28;20253;-44
2023/01/18 06:28:33;;;;;;;15.03;7.47;;;;;;;-144.22;100.00;60274.75;6245403;28;20320;-44
2023/01/18 06:31:35;;;;;;;27.70;7.93;;;;;;;-144.22;100.00;60274.75;6244989;28;20310;-43
2023/01/18 06:34:38;;;;;;;10.23;7.20;;;;;;;-144.22;100.00;60274.75;6242595;28;20253;-44
2023/01/18 06:37:40;;;;;;;10.50;6.57;;;;;;;-144.22;100.00;60274.75;6243903;28;20291;-44
2023/01/18 06:40:42;;;;;;;10.13;6.53;;;;;;;-144.22;100.00;60274.75;6242635;28;20731;-44
2023/01/18 06:43:44;;;;;;;11.30;6.87;;;;;;;-144.22;100.00;60274.75;6243001;28;20451;-44
2023/01/18 06:46:46;;;;;;;10.80;6.63;;;;;;;-144.22;100.00;60274.75;6228524;28;20457;-44
2023/01/18 06:49:49;;;;;;;8.67;6.20;;;;;;;-144.22;100.00;60274.75;6243296;28;20238;-43
2023/01/18 06:52:52;;;;;;;9.63;6.47;;;;;;;-144.22;100.00;60274.75;6247152;28;20375;-43
2023/01/18 06:55:56;;;;;;;14.57;7.03;;;;;;;-144.22;100.00;60274.75;6246543;28;20227;-44
2023/01/18 06:58:59;;;;;;;12.37;7.10;;;;;;;-144.22;100.00;60274.75;6244778;28;20519;-44
2023/01/18 07:02:03;;;;;;;13.17;7.03;;;;;;;-144.22;100.00;60274.75;6240919;28;20300;-44
2023/01/18 07:05:08;;;;;;;12.67;7.60;;;;;;;-144.22;100.00;60274.75;6245916;28;20600;-43
2023/01/18 07:08:11;;;;;;;15.90;8.13;;;;;;;-144.22;100.00;60274.75;6242091;28;20330;-43
2023/01/18 07:11:13;;;;;;;12.93;7.63;;;;;;;-144.22;100.00;60274.75;6246516;28;20799;-44
2023/01/18 07:14:16;;;;;;;15.63;8.13;;;;;;;-144.22;100.00;60274.75;6247850;28;20866;-45
2023/01/18 07:17:21;;;;;;;11.73;7.60;;;;;;;-0.12;100.00;60274.75;6248512;28;20310;-45
2023/01/18 07:20:23;;;;;;;11.53;7.60;;;;;;;-144.22;100.00;60274.75;6241138;28;20230;-44
2023/01/18 07:23:26;;;;;;;12.53;7.83;;;;;;;-144.22;100.00;60274.75;6246993;28;20857;-44
2023/01/18 07:26:28;;;;;;;12.60;7.50;;;;;;;-144.22;100.00;60274.75;6247716;28;20623;-44
2023/01/18 07:29:30;;;;;;;10.20;7.00;;;;;;;-144.22;100.00;60274.75;6246115;28;20368;-44
2023/01/18 07:32:32;;;;;;;12.50;7.93;;;;;;;-144.22;100.00;60274.75;6249528;28;20222;-44
2023/01/18 07:35:34;;;;;;;13.47;8.57;;;;;;;-144.22;100.00;60274.75;6242748;28;20503;-44
2023/01/18 07:38:38;;;;;;;11.27;7.33;;;;;;;-144.22;100.00;60274.75;6246281;28;20681;-44
2023/01/18 07:41:40;;;;;;;10.23;7.17;;;;;;;-144.22;100.00;60274.75;6247043;28;20349;-44
2023/01/18 07:44:43;;;;;;;9.03;6.60;;;;;;;-144.22;100.00;60274.75;6246690;28;20242;-43
2023/01/18 07:47:45;;;;;;;9.87;7.00;;;;;;;-144.22;100.00;60274.75;6246500;28;20241;-44
2023/01/18 07:50:59;;;;;;;9.43;6.07;;;;;;;-144.22;100.00;60274.75;6246529;28;20308;-43
2023/01/18 07:54:01;;;;;;;9.47;6.60;;;;;;;-144.22;100.00;60274.75;6245333;28;20347;-45
2023/01/18 07:57:03;;;;;;;9.17;6.40;;;;;;;-144.22;100.00;60274.75;6243593;28;20231;-44
2023/01/18 08:00:06;;;;;;;10.07;7.13;;;;;;;-144.22;100.00;60274.75;6246755;28;20303;-43
2023/01/18 08:03:16;;;;;;;9.47;6.53;;;;;;;-144.22;100.00;60274.75;6245959;28;20251;-44
2023/01/18 08:06:24;;;;;;;10.83;6.57;;;;;;;-144.22;100.00;60274.75;6246301;28;20219;-44
2023/01/18 08:09:26;;;;;;;8.00;5.47;;;;;;;-144.22;100.00;60274.75;6246687;28;20224;-44
2023/01/18 08:12:28;;;;;;;7.57;5.60;;;;;;;-144.22;100.00;60274.75;6245624;28;20321;-43
2023/01/18 08:15:31;;;;;;;7.03;4.83;;;;;;;-144.22;100.00;60274.75;6245184;28;20366;-44
2023/01/18 08:18:34;;;;;;;7.07;5.00;;;;;;;-144.22;100.00;60274.75;6243650;28;20246;-43
2023/01/18 08:21:36;;;;;;;6.87;5.23;;;;;;;-144.22;100.00;60274.75;6245253;28;20234;-43
2023/01/18 08:24:38;;;;;;;7.73;5.00;;;;;;;11.36;100.00;60274.75;6242370;28;20322;-44
2023/01/18 08:27:40;;;;;;;6.90;4.07;;;;;;;1.22;100.00;60274.75;6245084;28;20448;-44
2023/01/18 08:30:45;;;;;;;5.93;4.10;;;;;;;188.01;100.00;60274.75;6247746;28;20228;-43
2023/01/18 08:33:48;;;;;;;4.10;3.67;;;;;;;188.01;100.00;60274.75;6244279;28;20241;-44
2023/01/18 08:36:52;;;;;;;4.63;3.97;;;;;;;188.01;100.00;60274.75;6245160;28;20616;-44
2023/01/18 08:39:55;;;;;;;5.07;3.83;;;;;;;188.01;100.00;60274.75;6244887;28;20333;-46
2023/01/18 08:42:59;;;;;;;4.50;4.07;;;;;;;1.61;100.00;60274.75;6246767;28;20253;-44
2023/01/18 08:46:01;;;;;;;6.37;4.37;;;;;;;188.01;100.00;60274.75;6246031;28;20768;-44
2023/01/18 08:49:05;;;;;;;5.70;4.07;;;;;;;188.01;100.00;60274.75;6244779;28;20226;-43
2023/01/18 08:52:09;;;;;;;5.60;3.97;;;;;;;-144.22;100.00;60274.75;6244121;28;20264;-45
2023/01/18 08:55:12;;;;;;;3.93;3.20;;;;;;;-144.22;100.00;60274.75;6245880;28;20782;-44
2023/01/18 08:58:17;;;;;;;5.53;3.17;;;;;;;-144.22;100.00;60274.75;6245428;28;20235;-44
2023/01/18 09:01:23;;;;;;;3.90;3.00;;;;;;;-144.22;100.00;60274.75;6244285;28;20395;-44
2023/01/18 09:04:28;;;;;;;4.70;3.40;;;;;;;-144.22;100.00;60274.75;6244947;28;20345;-44
2023/01/18 09:07:31;;;;;;;4.83;3.67;;;;;;;188.01;100.00;60274.75;6244147;28;20742;-44
2023/01/18 09:10:36;;;;;;;2.50;2.30;;;;;;;-144.22;100.00;60274.75;6245980;28;20330;-44
2023/01/18 09:13:40;;;;;;;2.30;2.10;;;;;;;-144.22;100.00;60274.75;6246441;28;20251;-44
2023/01/18 09:17:00;;;;;;;2.63;1.90;;;;;;;188.01;100.00;60274.75;6245298;28;20224;-43
2023/01/18 09:20:06;;;;;;;2.83;1.60;;;;;;;188.01;100.00;60274.75;6243202;28;20234;-44
2023/01/18 09:23:09;;;;;;;2.57;1.70;;;;;;;188.01;100.00;60274.75;6245644;28;20227;-44
2023/01/18 09:26:19;;;;;;;2.40;1.57;;;;;;;188.01;100.00;60274.75;6244757;28;20376;-44
2023/01/18 09:29:21;;;;;;;1.57;1.47;;;;;;;-144.22;100.00;60274.75;6244430;28;20275;-43
2023/01/18 09:32:25;;;;;;;1.47;1.20;;;;;;;-144.22;100.00;60274.75;6243118;28;20238;-43
2023/01/18 09:35:31;;;;;;;1.40;1.20;;;;;;;-144.22;100.00;60274.75;6243605;28;20254;-43
2023/01/18 09:38:35;;;;;;;3.93;1.10;;;;;;;177.61;100.00;60274.75;6244812;28;20234;-43
2023/01/18 09:41:46;;;;;;;2.20;1.17;;;;;;;21.74;100.00;60274.75;6242198;28;20333;-43
2023/01/18 09:44:52;;;;;;;2.80;1.60;;;;;;;5.16;100.00;60274.75;6238804;28;20238;-43
2023/01/18 09:48:10;;;;;;;1.83;0.90;;;;;;;188.01;100.00;60274.75;6242220;28;20242;-43
2023/01/18 09:51:21;;;;;;;1.13;0.83;;;;;;;11.36;100.00;60274.75;6238985;28;20240;-43
2023/01/18 09:54:52;;;;;;;1.53;1.10;;;;;;;188.01;100.00;60274.75;6225459;28;20231;-43
2023/01/18 09:58:16;;;;;;;0.90;0.80;;;;;;;-144.22;100.00;60274.75;6244756;28;20245;-43
2023/01/18 10:01:24;;;;;;;1.00;0.90;;;;;;;177.61;100.00;60274.75;6241296;28;20732;-43
2023/01/18 10:04:37;;;;;;;1.17;1.07;;;;;;;177.61;100.00;60274.75;6245557;28;20254;-43
2023/01/18 10:08:06;;;;;;;1.10;0.90;;;;;;;11.36;100.00;60274.75;6246772;28;20632;-43
2023/01/18 10:11:32;;;;;;;1.27;0.90;;;;;;;4.91;100.00;60274.75;6243528;28;20238;-44
2023/01/18 10:15:09;;;;;;;1.73;0.70;;;;;;;177.61;100.00;60274.75;6222798;28;20225;-43
2023/01/18 10:18:15;;;;;;;1.83;1.03;;;;;;;21.74;100.00;60274.75;6236607;28;20230;-43
2023/01/18 10:21:37;;;;;;;1.00;0.77;;;;;;;-144.22;100.00;60274.75;6243171;28;20212;-43
2023/01/18 10:25:14;;;;;;;2.33;0.73;;;;;;;-144.22;100.00;60274.75;6245020;28;20241;-43
2023/01/18 10:28:25;;;;;;;0.93;0.70;;;;;;;-144.22;100.00;60274.75;6242838;28;20223;-43
2023/01/18 10:31:39;;;;;;;0.90;0.50;;;;;;;-144.22;100.00;60274.75;6242182;28;20308;-43
2023/01/18 10:34:46;;;;;;;0.63;0.50;;;;;;;188.01;100.00;60274.75;6242081;28;20974;-44
2023/01/18 10:37:49;;;;;;;0.50;0.50;;;;;;;11.36;100.00;60274.75;6240908;28;20278;-43
2023/01/18 10:41:00;;;;;;;0.30;0.30;;;;;;;4.75;100.00;60274.75;6246097;28;20258;-44
2023/01/18 10:44:03;;;;;;;0.80;0.60;;;;;;;-144.22;100.00;60274.75;6239614;28;20612;-44
2023/01/18 10:47:05;;;;;;;0.20;0.20;;;;;;;4.69;100.00;60274.75;6242699;28;20451;-43
2023/01/18 10:50:13;;;;;;;0.40;0.40;;;;;;;4.70;100.00;79090.91;6246358;28;20759;-43
2023/01/18 10:53:36;;;;;;;0.80;0.30;;;;;;;4.61;100.00;60274.75;6248421;28;20522;-43
2023/01/18 10:56:39;;;;;;;1.27;0.20;;;;;;;4.55;100.00;60274.75;6233361;28;20301;-43
2023/01/18 10:59:42;;;;;;;0.53;0.30;;;;;;;-144.22;100.00;60274.75;6244833;28;20558;-45
2023/01/18 11:02:44;;;;;;;0.27;0.20;;;;;;;-144.22;100.00;60274.75;6247860;28;20327;-43
2023/01/18 11:05:47;;;;;;;0.50;0.30;;;;;;;-144.22;100.00;60274.75;6250373;28;20228;-43
2023/01/18 11:08:50;;;;;;;2.20;0.20;;;;;;;-144.22;100.00;60274.75;6247371;28;20228;-43
2023/01/18 11:15:31;;;;;;;0.30;0.30;;;;;;;4.70;100.00;60274.75;6244138;28;20240;-44
2023/01/18 11:18:36;;;;;;;0.30;0.30;;;;;;;-144.22;100.00;60274.75;6244650;28;20223;-44
2023/01/18 11:21:41;;;;;;;0.20;0.20;;;;;;;-144.22;100.00;60274.75;6245577;28;20340;-44
2023/01/18 11:24:44;;;;;;;1.00;0.30;;;;;;;-144.22;100.00;60274.75;6245971;28;20247;-44
2023/01/18 11:27:49;;;;;;;0.67;0.30;;;;;;;11.36;100.00;60274.75;6246185;28;20322;-44
2023/01/18 11:30:55;;;;;;;0.40;0.20;;;;;;;177.61;100.00;60274.75;6226996;28;20235;-44
2023/01/18 11:34:03;;;;;;;0.13;0.10;;;;;;;-144.22;100.00;60274.75;6243387;28;20475;-44
2023/01/18 11:37:25;;;;;;;0.10;0.10;;;;;;;-144.22;100.00;60274.75;6241159;28;20246;-43
2023/01/18 11:40:31;;;;;;;1.23;0.30;;;;;;;-144.22;100.00;60274.75;6246438;28;20252;-46
2023/01/18 11:43:38;;;;;;;0.20;0.20;;;;;;;-144.22;100.00;60274.75;6246230;28;20569;-43
2023/01/18 11:46:48;;;;;;;1.13;0.10;;;;;;;6.09;100.00;60274.75;6245109;28;20241;-43
2023/01/18 11:50:00;;;;;;;0.10;0.10;;;;;;;-144.22;100.00;60274.75;6243212;28;20270;-44
2023/01/18 11:53:30;;;;;;;0.10;0.10;;;;;;;188.01;100.00;60274.75;6246807;28;20237;-45
2023/01/18 11:56:49;;;;;;;0.20;0.20;;;;;;;11.36;100.00;60274.75;6245739;28;20249;-43
2023/01/18 11:59:52;;;;;;;1.07;0.20;;;;;;;6.17;100.00;60274.75;6241224;28;20235;-43
2023/01/18 12:03:45;;;;;;;0.10;0.10;;;;;;;11.36;100.00;60274.75;6245175;28;20748;-43
2023/01/18 12:06:48;;;;;;;0.10;0.10;;;;;;;188.01;100.00;60274.75;6127699;28;20721;-43
2023/01/18 12:09:59;;;;;;;0.20;0.20;;;;;;;6.17;100.00;60274.75;6128524;28;20518;-43
2023/01/18 12:13:04;;;;;;;0.37;0.20;;;;;;;188.01;100.00;60274.75;6124604;28;20275;-44
2023/01/18 12:16:21;;;;;;;0.57;0.27;;;;;;;6.17;100.00;60274.75;6127893;28;20663;-44
2023/01/18 12:19:46;;;;;;;0.93;0.17;;;;;;;11.36;100.00;60274.75;6127246;28;20382;-43
2023/01/18 12:23:08;;;;;;;0.27;0.20;;;;;;;11.36;100.00;60274.75;6126297;28;20237;-44
2023/01/18 12:26:37;;;;;;;0.63;0.20;;;;;;;10.06;100.00;60274.75;6130285;28;20238;-44
2023/01/18 12:30:01;;;;;;;0.63;0.20;;;;;;;11.36;100.00;60274.75;6126702;28;20258;-44
2023/01/18 12:33:12;;;;;;;0.47;0.20;;;;;;;11.36;100.00;60274.75;6128569;28;20532;-43
2023/01/18 12:36:29;;;;;;;0.10;0.10;;;;;;;5.93;100.00;60274.75;6110360;28;21010;-43
2023/01/18 12:39:38;;;;;;;0.20;0.10;;;;;;;-144.22;100.00;60274.75;6141033;28;20230;-43
2023/01/18 12:43:11;;;;;;;0.20;0.20;;;;;;;177.61;100.00;60274.75;6248945;28;20248;-43
2023/01/18 12:46:27;;;;;;;0.10;0.10;;;;;;;11.36;100.00;60274.75;6244795;28;20237;-43
2023/01/18 12:49:35;;;;;;;0.40;0.10;;;;;;;11.36;100.00;60274.75;6248108;28;20370;-44
2023/01/18 12:52:45;;;;;;;0.23;0.10;;;;;;;177.61;100.00;60274.75;6245136;28;20232;-44
2023/01/18 12:55:52;;;;;;;1.77;0.20;;;;;;;11.36;100.00;60274.75;6245968;28;20230;-44
2023/01/18 12:59:04;;;;;;;0.30;0.10;;;;;;;11.36;100.00;60274.75;6244806;28;20329;-44
2023/01/18 13:02:39;;;;;;;0.30;0.30;;;;;;;11.36;100.00;60274.75;6242124;28;20234;-43
2023/01/18 13:05:57;;;;;;;0.10;0.10;;;;;;;8.77;100.00;60274.75;6247217;28;20288;-44
2023/01/18 13:09:17;;;;;;;0.90;0.30;;;;;;;-144.22;100.00;60274.75;6245165;28;20973;-43
2023/01/18 13:12:19;;;;;;;0.10;0.10;;;;;;;8.77;100.00;60274.75;6243324;28;20574;-43
2023/01/18 13:15:55;;;;;;;0.30;0.17;;;;;;;8.77;100.00;60274.75;6245844;28;20724;-43
2023/01/18 13:19:05;;;;;;;0.10;0.10;;;;;;;8.44;100.00;60274.75;6247261;28;20757;-43
2023/01/18 13:22:16;;;;;;;0.67;0.10;;;;;;;8.77;100.00;60274.75;6244241;28;20240;-43
2023/01/18 13:25:38;;;;;;;0.20;0.10;;;;;;;7.47;100.00;60274.75;6244786;28;20528;-43
2023/01/18 13:28:46;;;;;;;0.10;0.10;;;;;;;-144.22;100.00;60274.75;6239974;28;20238;-43
2023/01/18 13:31:49;;;;;;;0.10;0.10;;;;;;;-144.22;100.00;60274.75;6245750;28;20447;-43
2023/01/18 13:35:01;;;;;;;0.30;0.20;;;;;;;-144.22;100.00;60274.75;6238510;28;20233;-43
2023/01/18 13:38:25;;;;;;;0.30;0.20;;;;;;;6.21;100.00;60274.75;6244197;28;20721;-43
2023/01/18 13:42:02;;;;;;;0.30;0.10;;;;;;;6.17;100.00;60274.75;6243681;28;20227;-43
2023/01/18 13:45:16;;;;;;;0.10;0.10;;;;;;;6.17;100.00;60274.75;6182694;28;20245;-44
2023/01/18 13:48:35;;;;;;;0.10;0.10;;;;;;;6.17;100.00;60274.75;6244650;28;20595;-42
2023/01/18 13:51:45;;;;;;;0.17;0.17;;;;;;;11.36;100.00;60274.75;6221845;28;20626;-43
2023/01/18 13:54:54;;;;;;;0.17;0.17;;;;;;;11.36;100.00;60274.75;6245657;28;20631;-43
2023/01/18 13:57:56;;;;;;;0.20;0.20;;;;;;;5.98;100.00;60274.75;6239765;28;20330;-43
2023/01/18 14:01:02;;;;;;;0.10;0.10;;;;;;;11.36;100.00;60274.75;6246318;28;20237;-44
2023/01/18 14:04:25;;;;;;;0.27;0.10;;;;;;;-144.22;100.00;60274.75;6245877;28;20761;-43
2023/01/18 14:07:28;;;;;;;0.30;0.20;;;;;;;188.01;100.00;60274.75;6241589;28;20580;-44
2023/01/18 14:10:35;;;;;;;0.47;0.20;;;;;;;188.01;100.00;60274.75;6245021;28;20331;-45
2023/01/18 14:13:43;;;;;;;0.10;0.10;;;;;;;188.01;100.00;60274.75;6242326;28;20470;-44
2023/01/18 14:17:16;;;;;;;0.17;0.10;;;;;;;188.01;100.00;60274.75;6244161;28;20446;-44
2023/01/18 14:20:48;;;;;;;0.10;0.10;;;;;;;21.74;100.00;60274.75;6238520;28;20317;-44
2023/01/18 14:24:16;;;;;;;0.10;0.10;;;;;;;-144.22;100.00;60274.75;6238491;28;20451;-43
2023/01/18 14:27:25;;;;;;;0.20;0.20;;;;;;;-144.22;100.00;60274.75;6238714;28;20236;-42
2023/01/18 14:30:31;;;;;;;0.10;0.10;;;;;;;21.74;100.00;60274.75;6243272;28;20280;-42
2023/01/18 14:33:40;;;;;;;0.13;0.13;;;;;;;-144.22;100.00;60274.75;6244500;28;20234;-43
2023/01/18 14:36:43;;;;;;;0.30;0.10;;;;;;;-144.22;100.00;60274.75;6241341;28;20253;-44
2023/01/18 14:39:45;;;;;;;0.10;0.10;;;;;;;-144.22;100.00;60274.75;6243804;28;20633;-44
2023/01/18 14:43:15;;;;;;;0.83;0.30;;;;;;;-144.22;100.00;60274.75;6243601;28;20231;-43
2023/01/18 14:46:25;;;;;;;0.20;0.20;;;;;;;-144.22;100.00;60274.75;6226071;28;20593;-43
2023/01/18 14:49:29;;;;;;;0.20;0.20;;;;;;;11.36;100.00;60274.75;6238286;28;20242;-43
2023/01/18 14:52:33;;;;;;;0.20;0.20;;;;;;;188.01;100.00;60274.75;6242362;28;20238;-43
2023/01/18 14:55:35;;;;;;;0.70;0.30;;;;;;;177.61;100.00;60274.75;6240884;28;20234;-44